sensor_id;sensor_type;location;lat;lon;timestamp;pressure;altitude;pressure_sealevel;temperature;humidity
63691;BME280;49837;57.280;27.070;2022-07-30T00:00:37;100761.06;;;9.22;92.01
63691;BME280;49837;57.280;27.070;2022-07-30T00:01:37;100760.8;;;9.22;92.19
63691;BME280;49837;57.280;27.070;2022-07-30T00:02:38;100759.7;;;9.23;92.26
63691;BME280;49837;57.280;27.070;2022-07-30T00:03:38;100754.14;;;9.22;92.26
63691;BME280;49837;57.280;27.070;2022-07-30T00:04:38;100759.1;;;9.24;92.46
63691;BME280;49837;57.280;27.070;2022-07-30T00:05:39;100756.91;;;9.22;92.71
63691;BME280;49837;57.280;27.070;2022-07-30T00:06:39;100755.09;;;9.21;92.71
63691;BME280;49837;57.280;27.070;2022-07-30T00:07:40;100756.94;;;9.2;92.8
63691;BME280;49837;57.280;27.070;2022-07-30T00:08:40;100756.91;;;9.15;93.24
63691;BME280;49837;57.280;27.070;2022-07-30T00:09:41;100757.67;;;9.13;93.39
63691;BME280;49837;57.280;27.070;2022-07-30T00:10:41;100757.55;;;9.12;93.4
63691;BME280;49837;57.280;27.070;2022-07-30T00:11:41;100754.55;;;9.11;93.02
63691;BME280;49837;57.280;27.070;2022-07-30T00:12:42;100757.38;;;9.1;93.09
63691;BME280;49837;57.280;27.070;2022-07-30T00:13:42;100758.56;;;9.09;92.85
63691;BME280;49837;57.280;27.070;2022-07-30T00:14:42;100755.81;;;9.1;92.45
63691;BME280;49837;57.280;27.070;2022-07-30T00:15:43;100757.28;;;9.13;92.34
63691;BME280;49837;57.280;27.070;2022-07-30T00:16:43;100758.67;;;9.15;92.39
63691;BME280;49837;57.280;27.070;2022-07-30T00:17:44;100758.51;;;9.19;92.16
63691;BME280;49837;57.280;27.070;2022-07-30T00:18:45;100757.02;;;9.19;91.67
63691;BME280;49837;57.280;27.070;2022-07-30T00:19:45;100755.24;;;9.2;91.67
63691;BME280;49837;57.280;27.070;2022-07-30T00:20:46;100752.43;;;9.19;91.51
63691;BME280;49837;57.280;27.070;2022-07-30T00:21:46;100754.5;;;9.14;91.5
63691;BME280;49837;57.280;27.070;2022-07-30T00:22:47;100752.53;;;9.12;91.79
63691;BME280;49837;57.280;27.070;2022-07-30T00:23:47;100751.0;;;9.1;91.98
63691;BME280;49837;57.280;27.070;2022-07-30T00:24:48;100751.9;;;9.05;91.92
63691;BME280;49837;57.280;27.070;2022-07-30T00:25:48;100750.33;;;9.03;92.2
63691;BME280;49837;57.280;27.070;2022-07-30T00:26:48;100748.01;;;9.09;91.79
63691;BME280;49837;57.280;27.070;2022-07-30T00:27:49;100753.2;;;9.07;91.78
63691;BME280;49837;57.280;27.070;2022-07-30T00:28:49;100747.01;;;9.09;91.5
63691;BME280;49837;57.280;27.070;2022-07-30T00:29:49;100747.78;;;9.07;91.29
63691;BME280;49837;57.280;27.070;2022-07-30T00:30:50;100749.52;;;9.08;91.73
63691;BME280;49837;57.280;27.070;2022-07-30T00:31:52;100746.35;;;9.09;91.55
63691;BME280;49837;57.280;27.070;2022-07-30T00:32:52;100751.05;;;9.06;92.22
63691;BME280;49837;57.280;27.070;2022-07-30T00:33:53;100754.69;;;8.94;92.27
63691;BME280;49837;57.280;27.070;2022-07-30T00:34:53;100751.06;;;8.87;92.52
63691;BME280;49837;57.280;27.070;2022-07-30T00:35:54;100752.97;;;8.88;92.61
63691;BME280;49837;57.280;27.070;2022-07-30T00:36:54;100750.0;;;8.86;92.87
63691;BME280;49837;57.280;27.070;2022-07-30T00:37:54;100750.8;;;8.81;92.6
63691;BME280;49837;57.280;27.070;2022-07-30T00:38:55;100750.58;;;8.8;92.99
63691;BME280;49837;57.280;27.070;2022-07-30T00:39:55;100749.27;;;8.78;93.01
63691;BME280;49837;57.280;27.070;2022-07-30T00:40:56;100749.17;;;8.73;92.96
63691;BME280;49837;57.280;27.070;2022-07-30T00:42:01;100748.54;;;8.71;92.88
63691;BME280;49837;57.280;27.070;2022-07-30T00:42:59;100747.48;;;8.67;93.07
63691;BME280;49837;57.280;27.070;2022-07-30T00:44:00;100750.92;;;8.65;92.56
63691;BME280;49837;57.280;27.070;2022-07-30T00:45:00;100750.34;;;8.65;92.69
63691;BME280;49837;57.280;27.070;2022-07-30T00:46:01;100750.38;;;8.61;92.38
63691;BME280;49837;57.280;27.070;2022-07-30T00:47:01;100749.42;;;8.6;92.11
63691;BME280;49837;57.280;27.070;2022-07-30T00:48:02;100746.92;;;8.65;91.99
63691;BME280;49837;57.280;27.070;2022-07-30T00:49:02;100749.34;;;8.65;92.06
63691;BME280;49837;57.280;27.070;2022-07-30T00:50:04;100746.36;;;8.63;92.29
63691;BME280;49837;57.280;27.070;2022-07-30T00:51:03;100746.06;;;8.62;93.09
63691;BME280;49837;57.280;27.070;2022-07-30T00:52:04;100740.5;;;8.55;92.67
63691;BME280;49837;57.280;27.070;2022-07-30T00:53:04;100744.07;;;8.54;92.64
63691;BME280;49837;57.280;27.070;2022-07-30T00:54:04;100742.72;;;8.48;93.38
63691;BME280;49837;57.280;27.070;2022-07-30T00:55:06;100740.74;;;8.46;93.13
63691;BME280;49837;57.280;27.070;2022-07-30T00:56:05;100738.66;;;8.47;92.94
63691;BME280;49837;57.280;27.070;2022-07-30T00:57:05;100740.16;;;8.5;93.41
63691;BME280;49837;57.280;27.070;2022-07-30T00:58:06;100739.3;;;8.5;94.04
63691;BME280;49837;57.280;27.070;2022-07-30T00:59:06;100738.14;;;8.47;93.72
63691;BME280;49837;57.280;27.070;2022-07-30T01:00:09;100739.11;;;8.43;93.73
63691;BME280;49837;57.280;27.070;2022-07-30T01:01:07;100737.55;;;8.41;94.04
63691;BME280;49837;57.280;27.070;2022-07-30T01:02:08;100737.7;;;8.37;93.79
63691;BME280;49837;57.280;27.070;2022-07-30T01:03:08;100738.31;;;8.4;93.78
63691;BME280;49837;57.280;27.070;2022-07-30T01:04:08;100739.89;;;8.4;94.36
63691;BME280;49837;57.280;27.070;2022-07-30T01:05:09;100736.94;;;8.36;94.35
63691;BME280;49837;57.280;27.070;2022-07-30T01:06:09;100736.08;;;8.31;94.39
63691;BME280;49837;57.280;27.070;2022-07-30T01:07:10;100737.91;;;8.33;94.78
63691;BME280;49837;57.280;27.070;2022-07-30T01:08:11;100734.42;;;8.31;94.83
63691;BME280;49837;57.280;27.070;2022-07-30T01:09:11;100735.16;;;8.33;94.41
63691;BME280;49837;57.280;27.070;2022-07-30T01:10:13;100735.47;;;8.34;94.68
63691;BME280;49837;57.280;27.070;2022-07-30T01:11:12;100735.36;;;8.37;94.9
63691;BME280;49837;57.280;27.070;2022-07-30T01:12:16;100732.11;;;8.37;95.16
63691;BME280;49837;57.280;27.070;2022-07-30T01:13:16;100730.2;;;8.38;95.01
63691;BME280;49837;57.280;27.070;2022-07-30T01:14:16;100734.36;;;8.38;95.04
63691;BME280;49837;57.280;27.070;2022-07-30T01:15:17;100736.55;;;8.36;95.2
63691;BME280;49837;57.280;27.070;2022-07-30T01:16:17;100733.34;;;8.32;95.18
63691;BME280;49837;57.280;27.070;2022-07-30T01:17:17;100733.28;;;8.28;94.7
63691;BME280;49837;57.280;27.070;2022-07-30T01:18:18;100731.72;;;8.28;94.87
63691;BME280;49837;57.280;27.070;2022-07-30T01:19:24;100731.73;;;8.27;95.16
63691;BME280;49837;57.280;27.070;2022-07-30T01:23:41;100731.71;;;8.13;94.18
63691;BME280;49837;57.280;27.070;2022-07-30T01:24:35;100730.12;;;8.14;93.92
63691;BME280;49837;57.280;27.070;2022-07-30T01:26:35;100727.73;;;8.13;93.81
63691;BME280;49837;57.280;27.070;2022-07-30T01:28:41;100726.11;;;8.16;94.26
63691;BME280;49837;57.280;27.070;2022-07-30T01:29:40;100725.48;;;8.21;94.62
63691;BME280;49837;57.280;27.070;2022-07-30T01:30:41;100727.75;;;8.26;95.03
63691;BME280;49837;57.280;27.070;2022-07-30T01:31:41;100723.78;;;8.24;95.18
63691;BME280;49837;57.280;27.070;2022-07-30T01:32:41;100719.42;;;8.21;95.36
63691;BME280;49837;57.280;27.070;2022-07-30T01:33:46;100720.14;;;8.15;95.73
63691;BME280;49837;57.280;27.070;2022-07-30T01:34:45;100719.7;;;8.17;95.7
63691;BME280;49837;57.280;27.070;2022-07-30T01:35:46;100719.69;;;8.11;95.5
63691;BME280;49837;57.280;27.070;2022-07-30T01:36:46;100718.71;;;8.11;95.48
63691;BME280;49837;57.280;27.070;2022-07-30T01:37:46;100715.92;;;8.13;95.67
63691;BME280;49837;57.280;27.070;2022-07-30T01:38:48;100718.39;;;8.15;95.83
63691;BME280;49837;57.280;27.070;2022-07-30T01:39:48;100714.72;;;8.17;96.09
63691;BME280;49837;57.280;27.070;2022-07-30T01:40:48;100713.98;;;8.16;96.06
63691;BME280;49837;57.280;27.070;2022-07-30T01:41:49;100717.77;;;8.19;96.02
63691;BME280;49837;57.280;27.070;2022-07-30T01:42:50;100717.43;;;8.21;95.98
63691;BME280;49837;57.280;27.070;2022-07-30T01:43:49;100716.59;;;8.19;95.95
63691;BME280;49837;57.280;27.070;2022-07-30T01:44:49;100714.55;;;8.18;96.01
63691;BME280;49837;57.280;27.070;2022-07-30T01:45:50;100713.56;;;8.09;95.98
63691;BME280;49837;57.280;27.070;2022-07-30T01:46:50;100717.05;;;8.02;95.55
63691;BME280;49837;57.280;27.070;2022-07-30T01:47:54;100712.14;;;8.01;95.29
63691;BME280;49837;57.280;27.070;2022-07-30T01:48:52;100714.71;;;8.04;95.28
63691;BME280;49837;57.280;27.070;2022-07-30T01:49:54;100714.24;;;8.07;95.45
63691;BME280;49837;57.280;27.070;2022-07-30T01:50:54;100714.96;;;8.09;95.56
63691;BME280;49837;57.280;27.070;2022-07-30T01:51:53;100714.58;;;8.09;95.55
63691;BME280;49837;57.280;27.070;2022-07-30T01:52:55;100715.98;;;8.08;95.67
63691;BME280;49837;57.280;27.070;2022-07-30T01:53:55;100711.77;;;8.08;95.75
63691;BME280;49837;57.280;27.070;2022-07-30T01:54:55;100714.16;;;8.08;95.67
63691;BME280;49837;57.280;27.070;2022-07-30T01:55:55;100714.52;;;8.06;95.59
63691;BME280;49837;57.280;27.070;2022-07-30T01:56:56;100711.55;;;8.05;95.64
63691;BME280;49837;57.280;27.070;2022-07-30T01:57:57;100716.16;;;7.98;95.64
63691;BME280;49837;57.280;27.070;2022-07-30T01:58:56;100711.61;;;7.96;95.65
63691;BME280;49837;57.280;27.070;2022-07-30T02:00:00;100713.77;;;7.96;95.73
63691;BME280;49837;57.280;27.070;2022-07-30T02:00:58;100713.64;;;7.95;95.74
63691;BME280;49837;57.280;27.070;2022-07-30T02:01:58;100718.1;;;7.95;95.66
63691;BME280;49837;57.280;27.070;2022-07-30T02:02:58;100715.17;;;7.98;95.64
63691;BME280;49837;57.280;27.070;2022-07-30T02:04:01;100714.76;;;7.99;95.49
63691;BME280;49837;57.280;27.070;2022-07-30T02:04:59;100717.43;;;7.96;95.45
63691;BME280;49837;57.280;27.070;2022-07-30T02:06:06;100716.27;;;7.97;95.36
63691;BME280;49837;57.280;27.070;2022-07-30T02:07:05;100716.09;;;7.96;95.31
63691;BME280;49837;57.280;27.070;2022-07-30T02:09:05;100712.88;;;7.95;95.23
63691;BME280;49837;57.280;27.070;2022-07-30T02:11:14;100711.97;;;7.96;95.15
63691;BME280;49837;57.280;27.070;2022-07-30T02:12:14;100711.8;;;7.97;95.14
63691;BME280;49837;57.280;27.070;2022-07-30T02:13:19;100714.79;;;7.94;95.14
63691;BME280;49837;57.280;27.070;2022-07-30T02:14:21;100715.24;;;7.91;95.39
63691;BME280;49837;57.280;27.070;2022-07-30T02:16:27;100717.11;;;7.87;95.57
63691;BME280;49837;57.280;27.070;2022-07-30T02:17:28;100717.87;;;7.85;95.55
63691;BME280;49837;57.280;27.070;2022-07-30T02:18:39;100716.95;;;7.87;95.17
63691;BME280;49837;57.280;27.070;2022-07-30T02:19:35;100716.45;;;7.88;95.06
63691;BME280;49837;57.280;27.070;2022-07-30T02:20:33;100714.82;;;7.91;95.15
63691;BME280;49837;57.280;27.070;2022-07-30T02:21:40;100716.08;;;7.91;95.35
63691;BME280;49837;57.280;27.070;2022-07-30T02:22:39;100716.0;;;7.91;95.24
63691;BME280;49837;57.280;27.070;2022-07-30T02:23:41;100716.71;;;7.94;95.02
63691;BME280;49837;57.280;27.070;2022-07-30T02:24:42;100720.94;;;7.94;94.97
63691;BME280;49837;57.280;27.070;2022-07-30T02:25:43;100722.64;;;7.92;95.11
63691;BME280;49837;57.280;27.070;2022-07-30T02:26:45;100719.47;;;7.93;95.09
63691;BME280;49837;57.280;27.070;2022-07-30T02:27:48;100720.36;;;7.94;95.16
63691;BME280;49837;57.280;27.070;2022-07-30T02:28:49;100722.95;;;7.92;95.19
63691;BME280;49837;57.280;27.070;2022-07-30T02:29:49;100722.02;;;7.94;95.27
63691;BME280;49837;57.280;27.070;2022-07-30T02:30:54;100721.81;;;7.98;95.08
63691;BME280;49837;57.280;27.070;2022-07-30T02:31:50;100722.08;;;7.96;95.09
63691;BME280;49837;57.280;27.070;2022-07-30T02:32:50;100720.75;;;7.98;94.85
63691;BME280;49837;57.280;27.070;2022-07-30T02:33:53;100723.15;;;7.98;94.73
63691;BME280;49837;57.280;27.070;2022-07-30T02:34:56;100722.06;;;7.99;94.75
63691;BME280;49837;57.280;27.070;2022-07-30T02:35:56;100721.14;;;7.99;94.79
63691;BME280;49837;57.280;27.070;2022-07-30T02:36:56;100723.81;;;7.98;94.83
63691;BME280;49837;57.280;27.070;2022-07-30T02:37:57;100721.73;;;7.99;94.9
63691;BME280;49837;57.280;27.070;2022-07-30T02:38:57;100720.64;;;7.98;94.84
63691;BME280;49837;57.280;27.070;2022-07-30T02:39:57;100723.75;;;7.95;94.92
63691;BME280;49837;57.280;27.070;2022-07-30T02:40:59;100723.34;;;7.95;94.9
63691;BME280;49837;57.280;27.070;2022-07-30T02:41:58;100723.7;;;7.92;94.91
63691;BME280;49837;57.280;27.070;2022-07-30T02:43:00;100723.48;;;7.89;94.89
63691;BME280;49837;57.280;27.070;2022-07-30T02:43:59;100728.05;;;7.89;94.81
63691;BME280;49837;57.280;27.070;2022-07-30T02:45:00;100727.06;;;7.88;94.73
63691;BME280;49837;57.280;27.070;2022-07-30T02:46:00;100727.95;;;7.9;94.78
63691;BME280;49837;57.280;27.070;2022-07-30T02:47:00;100725.95;;;7.9;95.05
63691;BME280;49837;57.280;27.070;2022-07-30T02:48:03;100722.69;;;7.94;95.19
63691;BME280;49837;57.280;27.070;2022-07-30T02:49:02;100723.98;;;7.96;95.55
63691;BME280;49837;57.280;27.070;2022-07-30T02:50:04;100724.33;;;7.96;95.46
63691;BME280;49837;57.280;27.070;2022-07-30T02:51:03;100725.75;;;7.96;95.39
63691;BME280;49837;57.280;27.070;2022-07-30T02:52:04;100726.43;;;7.95;95.44
63691;BME280;49837;57.280;27.070;2022-07-30T02:53:07;100722.77;;;7.95;95.57
63691;BME280;49837;57.280;27.070;2022-07-30T02:54:06;100729.36;;;8.0;95.56
63691;BME280;49837;57.280;27.070;2022-07-30T02:55:08;100723.7;;;8.01;95.44
63691;BME280;49837;57.280;27.070;2022-07-30T02:56:08;100726.1;;;8.01;95.49
63691;BME280;49837;57.280;27.070;2022-07-30T02:57:08;100722.36;;;8.02;95.56
63691;BME280;49837;57.280;27.070;2022-07-30T02:58:09;100725.76;;;8.02;95.57
63691;BME280;49837;57.280;27.070;2022-07-30T02:59:09;100725.08;;;8.03;95.59
63691;BME280;49837;57.280;27.070;2022-07-30T03:00:10;100729.09;;;8.01;95.49
63691;BME280;49837;57.280;27.070;2022-07-30T03:01:10;100728.19;;;8.01;95.58
63691;BME280;49837;57.280;27.070;2022-07-30T03:02:11;100724.53;;;8.01;95.48
63691;BME280;49837;57.280;27.070;2022-07-30T03:03:12;100726.26;;;8.02;95.67
63691;BME280;49837;57.280;27.070;2022-07-30T03:04:13;100729.75;;;8.03;95.78
63691;BME280;49837;57.280;27.070;2022-07-30T03:05:13;100726.03;;;8.08;95.85
63691;BME280;49837;57.280;27.070;2022-07-30T03:06:14;100725.53;;;8.1;95.74
63691;BME280;49837;57.280;27.070;2022-07-30T03:07:14;100724.09;;;8.11;95.68
63691;BME280;49837;57.280;27.070;2022-07-30T03:08:14;100725.67;;;8.12;95.73
63691;BME280;49837;57.280;27.070;2022-07-30T03:09:17;100727.14;;;8.13;95.7
63691;BME280;49837;57.280;27.070;2022-07-30T03:10:16;100724.86;;;8.18;95.87
63691;BME280;49837;57.280;27.070;2022-07-30T03:11:18;100725.2;;;8.24;95.88
63691;BME280;49837;57.280;27.070;2022-07-30T03:12:18;100728.48;;;8.28;95.78
63691;BME280;49837;57.280;27.070;2022-07-30T03:13:19;100731.59;;;8.31;95.42
63691;BME280;49837;57.280;27.070;2022-07-30T03:14:18;100729.39;;;8.36;95.46
63691;BME280;49837;57.280;27.070;2022-07-30T03:15:19;100732.72;;;8.41;95.38
63691;BME280;49837;57.280;27.070;2022-07-30T03:16:21;100732.44;;;8.43;95.04
63691;BME280;49837;57.280;27.070;2022-07-30T03:17:21;100731.28;;;8.45;94.78
63691;BME280;49837;57.280;27.070;2022-07-30T03:18:21;100733.64;;;8.51;94.61
63691;BME280;49837;57.280;27.070;2022-07-30T03:19:22;100732.2;;;8.53;94.58
63691;BME280;49837;57.280;27.070;2022-07-30T03:20:24;100735.45;;;8.59;94.63
63691;BME280;49837;57.280;27.070;2022-07-30T03:21:25;100732.48;;;8.63;94.45
63691;BME280;49837;57.280;27.070;2022-07-30T03:22:24;100729.02;;;8.68;94.34
63691;BME280;49837;57.280;27.070;2022-07-30T03:23:24;100731.0;;;8.7;94.12
63691;BME280;49837;57.280;27.070;2022-07-30T03:24:25;100731.42;;;8.7;93.85
63691;BME280;49837;57.280;27.070;2022-07-30T03:25:26;100730.16;;;8.7;93.84
63691;BME280;49837;57.280;27.070;2022-07-30T03:26:26;100731.8;;;8.72;93.66
63691;BME280;49837;57.280;27.070;2022-07-30T03:27:26;100732.64;;;8.78;93.43
63691;BME280;49837;57.280;27.070;2022-07-30T03:28:27;100730.69;;;8.8;93.31
63691;BME280;49837;57.280;27.070;2022-07-30T03:29:28;100732.52;;;8.87;92.99
63691;BME280;49837;57.280;27.070;2022-07-30T03:30:28;100733.59;;;8.86;92.73
63691;BME280;49837;57.280;27.070;2022-07-30T03:31:29;100733.01;;;8.88;92.46
63691;BME280;49837;57.280;27.070;2022-07-30T03:32:33;100735.16;;;8.89;92.54
63691;BME280;49837;57.280;27.070;2022-07-30T03:33:34;100730.16;;;8.94;92.49
63691;BME280;49837;57.280;27.070;2022-07-30T03:34:36;100730.14;;;8.95;92.58
63691;BME280;49837;57.280;27.070;2022-07-30T03:35:36;100731.61;;;8.97;92.29
63691;BME280;49837;57.280;27.070;2022-07-30T03:36:37;100733.62;;;9.07;92.31
63691;BME280;49837;57.280;27.070;2022-07-30T03:37:38;100736.05;;;9.19;92.31
63691;BME280;49837;57.280;27.070;2022-07-30T03:38:38;100740.27;;;9.26;92.14
63691;BME280;49837;57.280;27.070;2022-07-30T03:39:38;100736.96;;;9.35;92.19
63691;BME280;49837;57.280;27.070;2022-07-30T03:40:38;100737.47;;;9.49;91.87
63691;BME280;49837;57.280;27.070;2022-07-30T03:41:38;100738.69;;;9.69;92.13
63691;BME280;49837;57.280;27.070;2022-07-30T03:42:38;100739.42;;;9.92;91.89
63691;BME280;49837;57.280;27.070;2022-07-30T03:43:39;100734.89;;;10.3;91.7
63691;BME280;49837;57.280;27.070;2022-07-30T03:44:40;100735.84;;;10.6;90.32
63691;BME280;49837;57.280;27.070;2022-07-30T03:45:41;100736.45;;;10.57;89.5
63691;BME280;49837;57.280;27.070;2022-07-30T03:46:40;100733.27;;;10.43;89.04
63691;BME280;49837;57.280;27.070;2022-07-30T03:47:42;100736.88;;;10.39;89.33
63691;BME280;49837;57.280;27.070;2022-07-30T03:48:41;100736.0;;;10.28;88.95
63691;BME280;49837;57.280;27.070;2022-07-30T03:49:41;100733.73;;;10.16;90.01
63691;BME280;49837;57.280;27.070;2022-07-30T03:50:42;100733.89;;;10.2;90.5
63691;BME280;49837;57.280;27.070;2022-07-30T03:51:42;100737.51;;;10.24;90.59
63691;BME280;49837;57.280;27.070;2022-07-30T03:52:42;100736.77;;;10.31;90.52
63691;BME280;49837;57.280;27.070;2022-07-30T03:53:44;100736.05;;;10.34;90.21
63691;BME280;49837;57.280;27.070;2022-07-30T03:54:45;100734.78;;;10.27;90.54
63691;BME280;49837;57.280;27.070;2022-07-30T03:55:44;100735.98;;;10.29;90.81
63691;BME280;49837;57.280;27.070;2022-07-30T03:56:44;100737.34;;;10.33;91.02
63691;BME280;49837;57.280;27.070;2022-07-30T03:57:44;100737.57;;;10.33;91.34
63691;BME280;49837;57.280;27.070;2022-07-30T03:58:45;100739.09;;;10.27;91.74
63691;BME280;49837;57.280;27.070;2022-07-30T03:59:45;100738.45;;;10.26;91.67
63691;BME280;49837;57.280;27.070;2022-07-30T04:00:47;100738.58;;;10.29;92.01
63691;BME280;49837;57.280;27.070;2022-07-30T04:01:46;100740.02;;;10.36;91.7
63691;BME280;49837;57.280;27.070;2022-07-30T04:02:47;100736.23;;;10.44;91.92
63691;BME280;49837;57.280;27.070;2022-07-30T04:03:47;100739.77;;;10.46;91.83
63691;BME280;49837;57.280;27.070;2022-07-30T04:04:47;100733.59;;;10.46;92.03
63691;BME280;49837;57.280;27.070;2022-07-30T04:05:48;100740.11;;;10.54;92.21
63691;BME280;49837;57.280;27.070;2022-07-30T04:06:48;100732.41;;;10.63;91.96
63691;BME280;49837;57.280;27.070;2022-07-30T04:07:48;100736.27;;;10.7;91.67
63691;BME280;49837;57.280;27.070;2022-07-30T04:08:49;100736.45;;;10.77;91.4
63691;BME280;49837;57.280;27.070;2022-07-30T04:09:49;100736.94;;;10.73;91.85
63691;BME280;49837;57.280;27.070;2022-07-30T04:10:50;100737.34;;;10.78;91.86
63691;BME280;49837;57.280;27.070;2022-07-30T04:11:50;100736.52;;;10.86;91.9
63691;BME280;49837;57.280;27.070;2022-07-30T04:12:50;100737.42;;;10.98;91.5
63691;BME280;49837;57.280;27.070;2022-07-30T04:13:51;100736.22;;;10.99;91.17
63691;BME280;49837;57.280;27.070;2022-07-30T04:14:51;100738.23;;;10.96;91.38
63691;BME280;49837;57.280;27.070;2022-07-30T04:17:02;100738.52;;;11.05;91.7
63691;BME280;49837;57.280;27.070;2022-07-30T04:18:00;100741.77;;;11.09;91.64
63691;BME280;49837;57.280;27.070;2022-07-30T04:19:00;100739.44;;;11.09;91.46
63691;BME280;49837;57.280;27.070;2022-07-30T04:20:19;100738.91;;;11.13;91.39
63691;BME280;49837;57.280;27.070;2022-07-30T04:21:05;100737.67;;;11.16;91.29
63691;BME280;49837;57.280;27.070;2022-07-30T04:22:11;100739.69;;;11.2;91.33
63691;BME280;49837;57.280;27.070;2022-07-30T04:23:09;100740.23;;;11.25;91.21
63691;BME280;49837;57.280;27.070;2022-07-30T04:24:10;100736.18;;;11.31;91.13
63691;BME280;49837;57.280;27.070;2022-07-30T04:25:11;100737.02;;;11.34;91.05
63691;BME280;49837;57.280;27.070;2022-07-30T04:26:11;100738.98;;;11.35;91.02
63691;BME280;49837;57.280;27.070;2022-07-30T04:27:11;100741.62;;;11.37;90.97
63691;BME280;49837;57.280;27.070;2022-07-30T04:28:12;100740.63;;;11.39;91.09
63691;BME280;49837;57.280;27.070;2022-07-30T04:29:12;100740.16;;;11.46;91.2
63691;BME280;49837;57.280;27.070;2022-07-30T04:30:15;100737.09;;;11.55;90.91
63691;BME280;49837;57.280;27.070;2022-07-30T04:31:16;100737.75;;;11.66;90.6
63691;BME280;49837;57.280;27.070;2022-07-30T04:32:16;100731.84;;;11.71;90.14
63691;BME280;49837;57.280;27.070;2022-07-30T04:33:16;100733.27;;;11.74;90.09
63691;BME280;49837;57.280;27.070;2022-07-30T04:34:17;100734.37;;;11.77;90.02
63691;BME280;49837;57.280;27.070;2022-07-30T04:35:28;100733.98;;;11.79;89.99
63691;BME280;49837;57.280;27.070;2022-07-30T04:36:21;100732.03;;;11.86;89.74
63691;BME280;49837;57.280;27.070;2022-07-30T04:37:24;100731.08;;;11.85;90.09
63691;BME280;49837;57.280;27.070;2022-07-30T04:38:21;100731.55;;;11.89;90.34
63691;BME280;49837;57.280;27.070;2022-07-30T04:39:22;100727.9;;;11.94;90.19
63691;BME280;49837;57.280;27.070;2022-07-30T04:40:23;100727.34;;;11.96;89.97
63691;BME280;49837;57.280;27.070;2022-07-30T04:41:23;100728.62;;;11.98;90.15
63691;BME280;49837;57.280;27.070;2022-07-30T04:42:24;100725.72;;;12.08;89.89
63691;BME280;49837;57.280;27.070;2022-07-30T04:43:24;100726.55;;;12.08;89.9
63691;BME280;49837;57.280;27.070;2022-07-30T04:44:24;100727.3;;;12.09;90.01
63691;BME280;49837;57.280;27.070;2022-07-30T04:45:25;100725.78;;;12.14;89.9
63691;BME280;49837;57.280;27.070;2022-07-30T04:46:25;100724.37;;;12.18;89.71
63691;BME280;49837;57.280;27.070;2022-07-30T04:47:25;100725.26;;;12.22;89.54
63691;BME280;49837;57.280;27.070;2022-07-30T04:48:26;100726.23;;;12.29;89.61
63691;BME280;49837;57.280;27.070;2022-07-30T04:49:27;100725.7;;;12.42;88.88
63691;BME280;49837;57.280;27.070;2022-07-30T04:50:28;100730.21;;;12.56;88.53
63691;BME280;49837;57.280;27.070;2022-07-30T04:51:34;100731.39;;;12.65;87.96
63691;BME280;49837;57.280;27.070;2022-07-30T04:52:28;100727.83;;;12.73;88.08
63691;BME280;49837;57.280;27.070;2022-07-30T04:53:29;100734.38;;;12.8;87.93
63691;BME280;49837;57.280;27.070;2022-07-30T04:54:39;100728.77;;;12.83;87.46
63691;BME280;49837;57.280;27.070;2022-07-30T04:55:34;100727.67;;;12.83;87.38
63691;BME280;49837;57.280;27.070;2022-07-30T04:56:34;100725.2;;;12.88;87.44
63691;BME280;49837;57.280;27.070;2022-07-30T04:57:36;100729.72;;;12.85;87.69
63691;BME280;49837;57.280;27.070;2022-07-30T04:58:35;100722.33;;;12.89;87.83
63691;BME280;49837;57.280;27.070;2022-07-30T04:59:35;100726.3;;;12.96;87.45
63691;BME280;49837;57.280;27.070;2022-07-30T05:00:37;100721.89;;;13.03;87.41
63691;BME280;49837;57.280;27.070;2022-07-30T05:01:39;100721.26;;;13.05;87.54
63691;BME280;49837;57.280;27.070;2022-07-30T05:02:39;100719.05;;;13.07;86.69
63691;BME280;49837;57.280;27.070;2022-07-30T05:03:39;100721.47;;;13.11;86.51
63691;BME280;49837;57.280;27.070;2022-07-30T05:04:39;100719.78;;;13.2;87.17
63691;BME280;49837;57.280;27.070;2022-07-30T05:05:40;100722.52;;;13.2;87.04
63691;BME280;49837;57.280;27.070;2022-07-30T05:06:40;100723.33;;;13.19;86.4
63691;BME280;49837;57.280;27.070;2022-07-30T05:07:41;100718.63;;;13.16;85.86
63691;BME280;49837;57.280;27.070;2022-07-30T05:08:41;100722.05;;;13.19;86.33
63691;BME280;49837;57.280;27.070;2022-07-30T05:09:41;100718.95;;;13.32;86.13
63691;BME280;49837;57.280;27.070;2022-07-30T05:10:42;100720.1;;;13.41;85.85
63691;BME280;49837;57.280;27.070;2022-07-30T05:11:54;100723.18;;;13.42;84.85
63691;BME280;49837;57.280;27.070;2022-07-30T05:12:47;100726.7;;;13.42;84.63
63691;BME280;49837;57.280;27.070;2022-07-30T05:13:47;100723.22;;;13.41;85.1
63691;BME280;49837;57.280;27.070;2022-07-30T05:14:48;100722.91;;;13.43;85.23
63691;BME280;49837;57.280;27.070;2022-07-30T05:15:48;100725.7;;;13.55;85.15
63691;BME280;49837;57.280;27.070;2022-07-30T05:16:49;100724.97;;;13.52;85.06
63691;BME280;49837;57.280;27.070;2022-07-30T05:17:50;100717.92;;;13.57;84.81
63691;BME280;49837;57.280;27.070;2022-07-30T05:18:49;100720.57;;;13.63;84.4
63691;BME280;49837;57.280;27.070;2022-07-30T05:19:50;100724.95;;;13.74;84.8
63691;BME280;49837;57.280;27.070;2022-07-30T05:20:50;100726.5;;;13.81;83.75
63691;BME280;49837;57.280;27.070;2022-07-30T05:21:51;100725.48;;;13.91;83.42
63691;BME280;49837;57.280;27.070;2022-07-30T05:22:51;100729.16;;;13.99;83.39
63691;BME280;49837;57.280;27.070;2022-07-30T05:23:52;100724.39;;;14.01;82.97
63691;BME280;49837;57.280;27.070;2022-07-30T05:24:52;100725.63;;;13.98;83.01
63691;BME280;49837;57.280;27.070;2022-07-30T05:25:52;100724.55;;;14.03;83.38
63691;BME280;49837;57.280;27.070;2022-07-30T05:26:53;100724.58;;;14.07;83.45